DNMN

Minna Airport

Airport
ICAO code
DNMN
IATA Code
MXJ
Summary
ICAO Region
AFI
ICAO Territory
Location

Maikonkole, Niger State

Serving
Minna
Elevation
834 ft
Coordinates
9° 39' 5" N , 6° 27' 40" E
KCC
Metar
Observation
DNMN 310700Z 32003KT CAVOK 23/06 Q1012
Station
Minna Airport
Date/Time
2023-01-31 08:00:00
Wind direction
320°
Wind speed
03 kts
Lowest cloud amount
clouds and visibility OK
Temperature
23°C
Dew point
6°C
Humidity
33%
QNH
1012 hPa
Weather condition
n/a

Minna Airport is an airport 6.2 nm northwest of Minna, the capital of Niger State in Nigeria.

Climatology

Tropical savanna climate (Köppen climate classification Aw)

Runways

Designator Length Width Surface Rops
5/23 3399 44 ASP No/No

Airport map

Aerial View

SKYbrary Partners:

Safety knowledge contributed by: